createdAt,value
2022-08-20T00:01:25.493Z,26.17
2022-08-20T00:04:46.437Z,24.02
2022-08-20T00:08:07.446Z,27.15
2022-08-20T00:11:34.424Z,25.60
2022-08-20T00:14:56.434Z,31.42
2022-08-20T00:18:18.428Z,24.05
2022-08-20T00:21:39.433Z,31.00
2022-08-20T00:25:00.427Z,28.33
2022-08-20T00:28:21.432Z,28.23
2022-08-20T00:31:42.421Z,30.05
2022-08-20T00:35:03.439Z,31.45
2022-08-20T00:38:24.427Z,29.48
2022-08-20T00:41:45.449Z,31.45
2022-08-20T00:45:06.438Z,24.48
2022-08-20T00:48:27.448Z,24.33
2022-08-20T00:51:56.448Z,30.00
2022-08-20T00:55:20.499Z,32.97
2022-08-20T00:58:42.442Z,26.00
2022-08-20T01:02:04.477Z,30.80
2022-08-20T01:05:29.708Z,20.45
2022-08-20T01:08:43.450Z,28.42
2022-08-20T01:12:04.447Z,22.45
2022-08-20T01:15:30.843Z,26.65
2022-08-20T01:18:53.429Z,20.17
2022-08-20T01:22:36.453Z,19.88
2022-08-20T01:26:18.465Z,22.70
2022-08-20T01:29:47.465Z,24.50
2022-08-20T01:33:09.459Z,22.80
2022-08-20T01:36:34.442Z,29.30
2022-08-20T01:39:55.499Z,18.67
2022-08-20T01:43:18.438Z,20.10
2022-08-20T01:46:50.472Z,20.13
2022-08-20T01:50:29.458Z,17.10
2022-08-20T01:53:53.456Z,21.80
2022-08-20T01:57:18.452Z,16.55
2022-08-20T02:00:41.467Z,16.52
2022-08-20T02:04:02.455Z,14.48
2022-08-20T02:07:31.477Z,13.18
2022-08-20T02:10:53.469Z,15.00
2022-08-20T02:14:15.462Z,19.05
2022-08-20T02:17:38.447Z,16.05
2022-08-20T02:21:01.467Z,13.50
2022-08-20T02:24:22.500Z,14.80
2022-08-20T02:27:44.473Z,14.10
2022-08-20T02:31:08.470Z,12.65
2022-08-20T02:34:29.479Z,17.77
2022-08-20T02:37:44.488Z,16.05
2022-08-20T02:41:05.515Z,20.25
2022-08-20T02:44:28.516Z,15.88
2022-08-20T02:47:50.518Z,16.63
2022-08-20T02:51:15.495Z,16.70
2022-08-20T02:54:36.486Z,22.85
2022-08-20T02:57:58.721Z,24.50
2022-08-20T03:01:24.502Z,26.60
2022-08-20T03:04:45.487Z,26.13
2022-08-20T03:08:07.482Z,30.23
2022-08-20T03:11:28.505Z,38.53
2022-08-20T03:14:49.485Z,36.10
2022-08-20T03:18:10.482Z,32.10
2022-08-20T03:21:31.467Z,42.22
2022-08-20T03:24:52.484Z,47.28
2022-08-20T03:28:14.462Z,46.03
2022-08-20T03:31:36.488Z,41.65
2022-08-20T03:34:57.471Z,42.60
2022-08-20T03:38:32.952Z,35.92
2022-08-20T03:41:54.483Z,32.20
2022-08-20T03:45:20.249Z,27.27
2022-08-20T03:48:42.471Z,25.42
2022-08-20T03:52:04.487Z,22.60
2022-08-20T03:55:25.485Z,26.08
2022-08-20T03:58:47.491Z,21.23
2022-08-20T04:02:08.503Z,22.00
2022-08-20T04:05:29.491Z,22.67
2022-08-20T04:08:50.519Z,24.10
2022-08-20T04:12:11.531Z,24.08
2022-08-20T04:15:32.515Z,22.45
2022-08-20T04:18:58.632Z,26.05
2022-08-20T04:22:23.502Z,21.63
2022-08-20T04:25:47.484Z,23.13
2022-08-20T04:29:08.509Z,15.82
2022-08-20T04:32:29.564Z,20.27
2022-08-20T04:35:50.521Z,21.98
2022-08-20T04:39:11.519Z,14.80
2022-08-20T04:42:32.497Z,15.85
2022-08-20T04:45:53.503Z,18.88
2022-08-20T04:49:14.506Z,20.83
2022-08-20T04:52:35.500Z,13.95
2022-08-20T04:55:59.512Z,18.38
2022-08-20T04:59:20.529Z,15.05
2022-08-20T05:02:42.518Z,26.45
2022-08-20T05:06:03.496Z,14.40
2022-08-20T05:09:24.545Z,17.08
2022-08-20T05:12:56.470Z,14.60
2022-08-20T05:16:17.530Z,22.70
2022-08-20T05:19:39.013Z,16.58
2022-08-20T05:23:00.524Z,22.42
2022-08-20T05:26:22.514Z,14.25
2022-08-20T05:29:43.529Z,15.85
2022-08-20T05:33:04.540Z,14.57
2022-08-20T05:36:25.513Z,17.45
2022-08-20T05:39:46.552Z,20.35
2022-08-20T05:43:07.523Z,18.52
2022-08-20T05:46:28.535Z,16.13
2022-08-20T05:49:50.531Z,17.95
2022-08-20T05:53:11.554Z,17.42
2022-08-20T05:56:32.521Z,13.23
2022-08-20T05:59:53.536Z,13.30
2022-08-20T06:03:32.524Z,14.80
2022-08-20T06:06:54.545Z,11.93
2022-08-20T06:10:16.539Z,29.02
2022-08-20T06:13:37.558Z,9.30
2022-08-20T06:16:59.142Z,14.10
2022-08-20T06:20:21.544Z,18.98
2022-08-20T06:23:56.387Z,12.32
2022-08-20T06:27:19.617Z,9.82
2022-08-20T06:30:40.522Z,16.38
2022-08-20T06:34:01.561Z,9.55
2022-08-20T06:37:31.157Z,15.95
2022-08-20T06:40:52.558Z,14.30
2022-08-20T06:44:13.542Z,11.73
2022-08-20T06:47:35.555Z,25.40
2022-08-20T06:50:59.528Z,12.95
2022-08-20T06:54:20.552Z,13.00
2022-08-20T06:57:51.539Z,8.85
2022-08-20T07:01:12.630Z,17.73
2022-08-20T07:04:33.606Z,7.30
2022-08-20T07:07:58.555Z,8.68
2022-08-20T07:11:22.480Z,9.15
2022-08-20T07:14:47.569Z,5.97
2022-08-20T07:18:11.572Z,10.10
2022-08-20T07:21:25.557Z,9.88
2022-08-20T07:24:49.142Z,8.07
2022-08-20T07:28:20.559Z,12.25
2022-08-20T07:32:00.577Z,9.80
2022-08-20T07:35:25.564Z,13.07
2022-08-20T07:38:47.572Z,14.98
2022-08-20T07:42:13.551Z,6.53
2022-08-20T07:45:34.569Z,13.00
2022-08-20T07:48:57.571Z,11.75
2022-08-20T07:52:19.566Z,14.60
2022-08-20T07:55:41.567Z,15.43
2022-08-20T07:59:17.563Z,7.05
2022-08-20T08:02:41.567Z,11.05
2022-08-20T08:06:03.599Z,11.52
2022-08-20T08:09:27.592Z,9.10
2022-08-20T08:12:58.715Z,10.27
2022-08-20T08:16:22.600Z,7.05
2022-08-20T08:19:47.582Z,11.82
2022-08-20T08:23:08.605Z,11.68
2022-08-20T08:26:45.581Z,13.77
2022-08-20T08:30:06.626Z,11.18
2022-08-20T08:33:37.571Z,14.32
2022-08-20T08:36:58.591Z,10.23
2022-08-20T08:40:19.690Z,8.48
2022-08-20T08:43:34.601Z,10.07
2022-08-20T08:46:58.586Z,8.93
2022-08-20T08:50:43.843Z,11.02
2022-08-20T08:54:07.257Z,15.60
2022-08-20T08:57:28.595Z,10.02
2022-08-20T09:00:56.133Z,9.80
2022-08-20T09:04:21.846Z,14.85
2022-08-20T09:07:46.590Z,9.98
2022-08-20T09:11:07.613Z,15.90
2022-08-20T09:14:28.568Z,13.02
2022-08-20T09:17:49.708Z,12.63
2022-08-20T09:21:10.579Z,19.30
